Time;durP1;ratioP1;P1;durP2;ratioP2;P2;SDS_P1;SDS_P2;PMS_P1;PMS_P2;Temp;Humidity;BMP_temperature;BMP_pressure;BME280_temperature;BME280_humidity;BME280_pressure;Samples;Min_cycle;Max_cycle;Signal;HPM_P1;HPM_P2
2024/01/17 00:01:34;;;;;;;2.80;2.60;;;;;-0.70;99654.00;;;;4931399;29;20779;-75
2024/01/17 00:04:20;;;;;;;2.13;2.03;;;;;-0.70;99648.00;;;;4928565;29;20231;-72
2024/01/17 00:07:07;;;;;;;4.80;2.73;;;;;-0.70;99655.00;;;;4938141;29;23860;-74
2024/01/17 00:09:53;;;;;;;5.83;2.57;;;;;-0.80;99646.00;;;;4932533;29;20257;-74
2024/01/17 00:12:39;;;;;;;3.10;2.10;;;;;-0.80;99649.00;;;;4928824;29;20321;-74
2024/01/17 00:15:27;;;;;;;4.23;2.53;;;;;-0.90;99633.00;;;;4921840;29;20243;-74
2024/01/17 00:18:13;;;;;;;2.90;2.73;;;;;-0.90;99639.00;;;;4925262;29;20236;-73
2024/01/17 00:20:59;;;;;;;7.63;3.40;;;;;-0.90;99631.00;;;;4928888;29;20240;-74
2024/01/17 00:23:46;;;;;;;3.00;2.63;;;;;-0.80;99645.00;;;;4938378;29;20296;-74
2024/01/17 00:26:32;;;;;;;2.63;2.13;;;;;-0.90;99645.00;;;;4931002;29;20244;-73
2024/01/17 00:29:18;;;;;;;3.23;2.30;;;;;-0.90;99644.00;;;;4929281;29;20274;-74
2024/01/17 00:32:06;;;;;;;5.57;2.43;;;;;-0.90;99638.00;;;;4929161;28;20245;-73
2024/01/17 00:34:53;;;;;;;3.33;2.37;;;;;-1.00;99646.00;;;;4937519;29;20253;-74
2024/01/17 00:37:40;;;;;;;4.73;2.13;;;;;-1.00;99640.00;;;;4935392;29;20246;-73
2024/01/17 00:40:27;;;;;;;1.97;1.80;;;;;-1.00;99623.00;;;;4938992;29;20233;-73
2024/01/17 00:43:14;;;;;;;7.10;2.67;;;;;-1.00;99617.00;;;;4932266;29;20251;-75
2024/01/17 00:46:00;;;;;;;2.67;2.47;;;;;-1.10;99608.00;;;;4936292;29;21710;-73
2024/01/17 00:48:47;;;;;;;2.57;2.20;;;;;-1.20;99597.00;;;;4941025;29;20611;-73
2024/01/17 00:51:35;;;;;;;1.83;1.60;;;;;-1.20;99602.00;;;;4926369;28;20236;-70
2024/01/17 00:54:21;;;;;;;4.07;2.70;;;;;-1.20;99587.00;;;;4926076;29;20232;-72
2024/01/17 00:57:07;;;;;;;2.60;2.40;;;;;-1.10;99575.00;;;;4933457;29;20240;-72
2024/01/17 00:59:53;;;;;;;2.30;2.10;;;;;-1.20;99573.00;;;;4930315;29;20387;-73
2024/01/17 01:02:40;;;;;;;3.50;2.97;;;;;-1.20;99576.00;;;;4930628;29;20259;-71
2024/01/17 01:05:28;;;;;;;4.00;2.57;;;;;-1.20;99585.00;;;;4934437;29;20281;-69
2024/01/17 01:08:14;;;;;;;3.17;2.67;;;;;-1.30;99578.00;;;;4930828;29;20785;-71
2024/01/17 01:11:01;;;;;;;4.67;2.53;;;;;-1.30;99568.00;;;;4929011;29;20247;-71
2024/01/17 01:13:47;;;;;;;3.17;2.43;;;;;-1.20;99573.00;;;;4941213;29;20899;-71
2024/01/17 01:16:33;;;;;;;4.33;2.60;;;;;-1.40;99572.00;;;;4934208;29;20236;-72
2024/01/17 01:19:20;;;;;;;5.63;2.40;;;;;-1.40;99571.00;;;;4931836;29;20240;-72
2024/01/17 01:22:08;;;;;;;4.33;2.70;;;;;-1.40;99551.00;;;;4929902;29;20337;-72
2024/01/17 01:24:54;;;;;;;2.87;2.37;;;;;-1.40;99549.00;;;;4935278;29;20237;-72
2024/01/17 01:27:40;;;;;;;2.77;2.57;;;;;-1.50;99551.00;;;;4936675;29;20236;-72
2024/01/17 01:30:28;;;;;;;2.90;2.47;;;;;-1.50;99545.00;;;;4930640;29;20247;-72
2024/01/17 01:33:15;;;;;;;2.57;2.37;;;;;-1.50;99544.00;;;;4936119;28;20240;-72
2024/01/17 01:36:01;;;;;;;2.80;2.60;;;;;-1.50;99545.00;;;;4938492;28;20251;-71
2024/01/17 01:38:49;;;;;;;2.27;2.00;;;;;-1.60;99535.00;;;;4937227;29;20359;-72
2024/01/17 01:41:35;;;;;;;7.10;2.60;;;;;-1.60;99520.00;;;;4937314;28;20247;-72
2024/01/17 01:44:21;;;;;;;3.23;2.20;;;;;-1.60;99517.00;;;;4941117;29;20231;-73
2024/01/17 01:47:08;;;;;;;6.63;2.10;;;;;-1.60;99503.00;;;;4938058;29;20248;-72
2024/01/17 01:49:55;;;;;;;2.40;2.20;;;;;-1.70;99502.00;;;;4926395;29;20236;-72
2024/01/17 01:52:44;;;;;;;2.53;2.40;;;;;-1.60;99488.00;;;;4933070;29;20787;-71
2024/01/17 01:55:32;;;;;;;3.53;2.77;;;;;-1.60;99492.00;;;;4940250;29;21369;-71
2024/01/17 01:58:18;;;;;;;3.97;3.30;;;;;-1.70;99484.00;;;;4937714;29;20239;-69
2024/01/17 02:01:07;;;;;;;2.20;2.10;;;;;-1.60;99478.00;;;;4934119;29;20239;-72
2024/01/17 02:03:54;;;;;;;2.93;2.67;;;;;-1.70;99468.00;;;;4918221;29;20237;-71
2024/01/17 02:06:42;;;;;;;2.17;1.87;;;;;-1.70;99467.00;;;;4931028;29;20236;-71
2024/01/17 02:09:29;;;;;;;2.67;2.13;;;;;-1.80;99465.00;;;;4933717;29;20247;-72
2024/01/17 02:12:17;;;;;;;1.63;1.53;;;;;-1.80;99458.00;;;;4933735;29;20237;-72
2024/01/17 02:15:04;;;;;;;2.83;2.00;;;;;-1.80;99463.00;;;;4938979;29;20889;-71
2024/01/17 02:17:51;;;;;;;1.90;1.80;;;;;-1.80;99459.00;;;;4940410;29;20346;-71
2024/01/17 02:20:39;;;;;;;2.17;2.00;;;;;-1.80;99451.00;;;;4933803;29;20317;-70
2024/01/17 02:23:26;;;;;;;2.37;2.20;;;;;-1.80;99447.00;;;;4943111;28;20345;-72
2024/01/17 02:26:14;;;;;;;3.50;2.97;;;;;-1.80;99435.00;;;;4936891;29;20603;-71
2024/01/17 02:29:01;;;;;;;4.43;2.33;;;;;-1.80;99432.00;;;;4925555;29;20366;-74
2024/01/17 02:31:48;;;;;;;4.37;2.87;;;;;-1.90;99426.00;;;;4937914;28;20241;-72
2024/01/17 02:34:34;;;;;;;4.87;2.70;;;;;-1.90;99420.00;;;;4935217;29;20724;-69
2024/01/17 02:37:21;;;;;;;2.70;2.03;;;;;-1.90;99413.00;;;;4934410;29;20237;-71
2024/01/17 02:40:09;;;;;;;2.77;2.40;;;;;-1.80;99408.00;;;;4939633;29;20303;-72
2024/01/17 02:42:57;;;;;;;3.30;2.23;;;;;-1.80;99411.00;;;;4936005;29;20247;-71
2024/01/17 02:45:43;;;;;;;5.10;2.43;;;;;-1.90;99422.00;;;;4924445;29;20236;-73
2024/01/17 02:48:30;;;;;;;2.13;1.80;;;;;-1.90;99430.00;;;;4937444;28;20224;-71
2024/01/17 02:51:16;;;;;;;8.10;3.17;;;;;-1.80;99424.00;;;;4933918;29;20330;-71
2024/01/17 02:54:05;;;;;;;2.80;2.60;;;;;-1.90;99418.00;;;;4939483;29;20745;-71
2024/01/17 02:56:52;;;;;;;1.97;1.83;;;;;-1.90;99414.00;;;;4934901;29;20268;-73
2024/01/17 02:59:41;;;;;;;4.37;2.80;;;;;-2.00;99410.00;;;;4935473;29;20314;-71
2024/01/17 03:02:27;;;;;;;4.03;1.97;;;;;-2.00;99399.00;;;;4933214;28;20236;-72
2024/01/17 03:05:14;;;;;;;3.57;2.57;;;;;-2.00;99401.00;;;;4930338;29;20608;-73
2024/01/17 03:08:00;;;;;;;2.60;2.40;;;;;-2.00;99394.00;;;;4928451;29;20768;-73
2024/01/17 03:10:47;;;;;;;2.00;1.90;;;;;-2.00;99383.00;;;;4937076;29;20306;-69
2024/01/17 03:13:33;;;;;;;2.30;1.97;;;;;-2.00;99379.00;;;;4931612;29;20810;-72
2024/01/17 03:16:21;;;;;;;2.27;2.00;;;;;-1.90;99377.00;;;;4934825;29;20231;-71
2024/01/17 03:19:07;;;;;;;2.60;2.40;;;;;-2.00;99366.00;;;;4936978;29;20280;-72
2024/01/17 03:21:54;;;;;;;2.37;1.83;;;;;-1.90;99355.00;;;;4945284;28;20501;-72
2024/01/17 03:24:41;;;;;;;1.50;1.40;;;;;-1.90;99357.00;;;;4928706;29;20770;-71
2024/01/17 03:27:27;;;;;;;3.63;2.17;;;;;-1.90;99346.00;;;;4941856;29;20319;-73
2024/01/17 03:30:14;;;;;;;3.77;3.20;;;;;-1.90;99332.00;;;;4934741;29;20241;-71
2024/01/17 03:33:04;;;;;;;2.53;2.30;;;;;-1.90;99343.00;;;;4936379;29;20243;-72
2024/01/17 03:35:50;;;;;;;2.27;2.07;;;;;-2.00;99335.00;;;;4935262;29;20243;-71
2024/01/17 03:38:36;;;;;;;1.87;1.77;;;;;-2.00;99339.00;;;;4935630;29;20316;-71
2024/01/17 03:41:23;;;;;;;2.50;2.30;;;;;-2.00;99333.00;;;;4934176;28;20241;-70
2024/01/17 03:44:09;;;;;;;3.17;2.17;;;;;-2.00;99333.00;;;;4943267;29;20762;-71
2024/01/17 03:46:55;;;;;;;2.87;2.27;;;;;-2.10;99325.00;;;;4934809;29;20619;-71
2024/01/17 03:49:43;;;;;;;2.47;2.23;;;;;-1.90;99311.00;;;;4933205;29;20228;-72
2024/01/17 03:52:30;;;;;;;4.97;3.37;;;;;-1.90;99304.00;;;;4938589;28;20769;-71
2024/01/17 03:55:16;;;;;;;5.40;2.67;;;;;-1.90;99298.00;;;;4941214;29;20299;-71
2024/01/17 03:58:03;;;;;;;2.37;1.80;;;;;-2.00;99290.00;;;;4929790;29;20345;-71
2024/01/17 04:00:49;;;;;;;4.03;1.90;;;;;-1.90;99277.00;;;;4931266;29;20236;-72
2024/01/17 04:03:35;;;;;;;2.57;2.37;;;;;-1.90;99286.00;;;;4931969;29;20367;-71
2024/01/17 04:06:25;;;;;;;2.47;2.23;;;;;-1.90;99278.00;;;;4936716;29;20757;-71
2024/01/17 04:09:11;;;;;;;2.23;2.07;;;;;-1.90;99273.00;;;;4933720;29;20262;-71
2024/01/17 04:11:58;;;;;;;3.23;2.70;;;;;-1.90;99264.00;;;;4927051;28;20748;-72
2024/01/17 04:14:45;;;;;;;2.90;2.60;;;;;-1.90;99267.00;;;;4926416;29;20322;-69
2024/01/17 04:17:31;;;;;;;2.67;2.43;;;;;-1.80;99262.00;;;;4936403;29;20233;-71
2024/01/17 04:20:18;;;;;;;3.27;2.23;;;;;-1.80;99254.00;;;;4940030;29;20227;-72
2024/01/17 04:23:06;;;;;;;3.90;1.93;;;;;-1.80;99235.00;;;;4939103;28;20311;-71
2024/01/17 04:25:53;;;;;;;2.73;2.43;;;;;-1.80;99239.00;;;;4934457;29;20236;-71
2024/01/17 04:28:39;;;;;;;2.23;2.03;;;;;-1.80;99213.00;;;;4932894;29;20228;-71
2024/01/17 04:31:26;;;;;;;3.83;2.93;;;;;-1.80;99218.00;;;;4939388;29;20239;-71
2024/01/17 04:34:12;;;;;;;4.53;1.77;;;;;-1.80;99213.00;;;;4940342;29;20356;-72
2024/01/17 04:36:59;;;;;;;1.90;1.80;;;;;-1.90;99203.00;;;;4933039;29;20756;-72
2024/01/17 04:39:47;;;;;;;2.00;1.60;;;;;-1.90;99190.00;;;;4933227;29;20228;-72
2024/01/17 04:42:33;;;;;;;3.00;2.70;;;;;-1.90;99197.00;;;;4943355;28;20741;-72
2024/01/17 04:45:19;;;;;;;2.10;1.83;;;;;-1.80;99193.00;;;;4926389;29;20237;-72
2024/01/17 04:48:07;;;;;;;2.90;2.60;;;;;-1.80;99183.00;;;;4937812;29;20252;-71
2024/01/17 04:50:58;;;;;;;2.77;1.87;;;;;-1.80;99176.00;;;;4936981;29;20251;-70
2024/01/17 04:53:45;;;;;;;2.40;2.17;;;;;-1.80;99166.00;;;;4923482;29;20239;-71
2024/01/17 04:56:32;;;;;;;5.37;2.50;;;;;-1.90;99156.00;;;;4932484;29;20301;-71
2024/01/17 04:59:19;;;;;;;1.90;1.80;;;;;-1.90;99152.00;;;;4930530;29;20236;-72
2024/01/17 05:02:05;;;;;;;3.40;3.03;;;;;-1.80;99147.00;;;;4931715;28;20345;-71
2024/01/17 05:04:51;;;;;;;3.80;2.87;;;;;-1.80;99143.00;;;;4927735;29;20240;-72
2024/01/17 05:07:38;;;;;;;2.77;2.60;;;;;-1.90;99139.00;;;;4931478;29;20280;-72
2024/01/17 05:10:25;;;;;;;1.67;1.53;;;;;-1.90;99140.00;;;;4932448;28;20235;-75
2024/01/17 05:13:13;;;;;;;4.30;1.93;;;;;-1.90;99127.00;;;;4943281;28;20671;-73
2024/01/17 05:15:59;;;;;;;3.87;2.67;;;;;-1.90;99121.00;;;;4936907;28;20872;-73
2024/01/17 05:18:46;;;;;;;2.00;1.83;;;;;-1.90;99117.00;;;;4938102;29;20294;-74
2024/01/17 05:21:32;;;;;;;1.90;1.80;;;;;-1.90;99108.00;;;;4949614;28;20247;-69
2024/01/17 05:24:19;;;;;;;2.47;2.27;;;;;-1.80;99103.00;;;;4945249;29;20239;-72
2024/01/17 05:27:05;;;;;;;3.60;3.27;;;;;-1.80;99096.00;;;;4944821;28;20236;-71
2024/01/17 05:29:53;;;;;;;2.37;1.73;;;;;-1.80;99090.00;;;;4944255;29;20407;-71
2024/01/17 05:32:39;;;;;;;1.80;1.67;;;;;-1.90;99086.00;;;;4942283;29;20763;-72
2024/01/17 05:35:27;;;;;;;4.50;2.50;;;;;-1.90;99080.00;;;;4936298;29;20253;-75
2024/01/17 05:38:14;;;;;;;1.90;1.80;;;;;-1.90;99076.00;;;;4938616;29;20401;-73
2024/01/17 05:41:00;;;;;;;2.70;2.10;;;;;-2.00;99080.00;;;;4939182;28;20226;-74
2024/01/17 05:43:46;;;;;;;2.37;2.17;;;;;-2.00;99061.00;;;;4929256;29;20240;-74
2024/01/17 05:46:34;;;;;;;2.00;1.83;;;;;-2.00;99059.00;;;;4939792;29;20834;-74
2024/01/17 05:49:20;;;;;;;3.20;1.97;;;;;-2.00;99051.00;;;;4940695;28;21063;-75
2024/01/17 05:52:07;;;;;;;2.37;2.17;;;;;-2.00;99040.00;;;;4936779;28;20239;-72
2024/01/17 05:54:53;;;;;;;1.60;1.40;;;;;-2.00;99055.00;;;;4938100;28;20235;-73
2024/01/17 05:57:41;;;;;;;4.30;3.30;;;;;-2.00;99043.00;;;;4934572;29;20888;-72
2024/01/17 06:00:27;;;;;;;2.43;2.20;;;;;-2.00;99036.00;;;;4938305;29;20299;-71
2024/01/17 06:03:15;;;;;;;2.40;2.27;;;;;-1.90;99032.00;;;;4931961;28;20236;-70
2024/01/17 06:06:01;;;;;;;2.03;1.80;;;;;-2.00;99026.00;;;;4934978;29;20761;-70
2024/01/17 06:08:48;;;;;;;6.20;2.50;;;;;-2.00;99024.00;;;;4931554;29;20232;-71
2024/01/17 06:11:34;;;;;;;3.57;3.27;;;;;-2.00;99021.00;;;;4940256;28;20790;-70
2024/01/17 06:14:21;;;;;;;2.03;1.93;;;;;-2.00;99021.00;;;;4933134;29;20236;-71
2024/01/17 06:17:08;;;;;;;2.50;2.23;;;;;-2.00;99015.00;;;;4942706;28;20233;-71
2024/01/17 06:19:55;;;;;;;3.00;1.80;;;;;-2.10;99015.00;;;;4946614;29;20238;-69
2024/01/17 06:22:41;;;;;;;3.73;2.27;;;;;-2.00;99022.00;;;;4946087;28;20860;-69
2024/01/17 06:25:28;;;;;;;2.43;2.23;;;;;-2.00;99018.00;;;;4947473;29;20277;-71
2024/01/17 06:28:14;;;;;;;2.33;2.23;;;;;-2.10;99008.00;;;;4938577;29;20360;-71
2024/01/17 06:31:01;;;;;;;6.03;2.60;;;;;-2.10;99012.00;;;;4934372;29;20271;-70
2024/01/17 06:33:47;;;;;;;2.60;2.27;;;;;-2.10;98997.00;;;;4944019;28;20243;-70
2024/01/17 06:36:35;;;;;;;2.90;2.60;;;;;-2.10;98989.00;;;;4932749;29;20706;-68
2024/01/17 06:39:21;;;;;;;1.63;1.33;;;;;-2.10;98984.00;;;;4942441;29;20824;-70
2024/01/17 06:42:08;;;;;;;2.47;2.03;;;;;-2.00;98982.00;;;;4941242;29;20236;-70
2024/01/17 06:44:54;;;;;;;2.10;1.90;;;;;-2.00;98969.00;;;;4932021;29;20724;-69
2024/01/17 06:47:40;;;;;;;3.77;2.77;;;;;-2.10;98971.00;;;;4935684;29;20257;-70
2024/01/17 06:50:27;;;;;;;2.17;1.97;;;;;-2.10;98960.00;;;;4934765;29;20873;-70
2024/01/17 06:53:17;;;;;;;1.93;1.83;;;;;-2.10;98965.00;;;;4935448;29;20659;-73
2024/01/17 06:56:05;;;;;;;2.27;2.07;;;;;-2.10;98968.00;;;;4931098;29;20241;-70
2024/01/17 06:58:51;;;;;;;3.30;2.03;;;;;-2.00;98962.00;;;;4935509;29;20236;-72
2024/01/17 07:01:39;;;;;;;3.73;2.20;;;;;-2.00;98971.00;;;;4922725;29;20237;-70
2024/01/17 07:04:26;;;;;;;4.30;2.50;;;;;-2.00;98945.00;;;;4933922;29;20229;-70
2024/01/17 07:07:12;;;;;;;4.80;2.40;;;;;-2.10;98955.00;;;;4935639;29;20318;-72
2024/01/17 07:10:00;;;;;;;4.70;3.23;;;;;-2.10;98945.00;;;;4920518;29;20235;-72
2024/01/17 07:12:46;;;;;;;5.53;2.37;;;;;-2.10;98945.00;;;;4941517;28;20251;-71
2024/01/17 07:15:32;;;;;;;4.27;2.40;;;;;-2.20;98937.00;;;;4935553;29;20232;-72
2024/01/17 07:18:18;;;;;;;3.17;2.73;;;;;-2.00;98932.00;;;;4940875;29;20231;-72
2024/01/17 07:21:06;;;;;;;3.17;2.73;;;;;-2.00;98939.00;;;;4923645;29;20244;-72
2024/01/17 07:23:53;;;;;;;2.73;2.37;;;;;-2.10;98930.00;;;;4934401;29;20263;-71
2024/01/17 07:26:40;;;;;;;3.47;3.00;;;;;-2.00;98918.00;;;;4938611;29;20662;-72
2024/01/17 07:29:27;;;;;;;4.10;3.27;;;;;-2.00;98917.00;;;;4941416;29;20231;-71
2024/01/17 07:32:13;;;;;;;5.93;2.53;;;;;-2.00;98906.00;;;;4925472;29;20237;-75
2024/01/17 07:35:00;;;;;;;3.93;2.97;;;;;-1.90;98901.00;;;;4933272;29;20896;-70
2024/01/17 07:37:46;;;;;;;3.87;2.90;;;;;-2.00;98903.00;;;;4941896;29;20236;-69
2024/01/17 07:40:33;;;;;;;3.83;2.60;;;;;-2.00;98897.00;;;;4925980;29;20282;-70
2024/01/17 07:43:20;;;;;;;4.13;2.90;;;;;-2.00;98881.00;;;;4929854;29;20245;-71
2024/01/17 07:46:07;;;;;;;4.93;2.33;;;;;-1.90;98885.00;;;;4925732;29;20228;-71
2024/01/17 07:48:53;;;;;;;3.77;3.00;;;;;-2.00;98881.00;;;;4934276;29;20798;-70
2024/01/17 07:51:39;;;;;;;9.90;2.77;;;;;-1.80;98872.00;;;;4924420;29;20237;-69
2024/01/17 07:54:26;;;;;;;4.23;3.13;;;;;-1.90;98872.00;;;;4935577;29;20970;-72
2024/01/17 07:57:12;;;;;;;3.90;2.23;;;;;-1.80;98872.00;;;;4931608;29;20239;-72
2024/01/17 08:00:00;;;;;;;5.47;3.13;;;;;-1.80;98864.00;;;;4939153;29;20337;-72
2024/01/17 08:02:46;;;;;;;2.67;2.43;;;;;-1.80;98851.00;;;;4938627;28;20241;-70
2024/01/17 08:05:33;;;;;;;4.10;2.83;;;;;-1.90;98847.00;;;;4942687;29;20296;-69
2024/01/17 08:08:20;;;;;;;3.33;3.03;;;;;-1.90;98844.00;;;;4938956;29;20284;-69
2024/01/17 08:11:06;;;;;;;4.33;2.73;;;;;-1.80;98841.00;;;;4935130;29;20780;-72
2024/01/17 08:13:53;;;;;;;4.80;3.17;;;;;-1.70;98824.00;;;;4921232;29;20388;-71
2024/01/17 08:16:40;;;;;;;5.50;3.23;;;;;-1.60;98830.00;;;;4944181;29;20232;-72
2024/01/17 08:19:27;;;;;;;2.43;2.27;;;;;-1.60;98821.00;;;;4937012;29;20223;-70
2024/01/17 08:22:13;;;;;;;4.83;2.93;;;;;-1.70;98821.00;;;;4929127;28;20253;-70
2024/01/17 08:25:00;;;;;;;3.63;2.83;;;;;-1.50;98806.00;;;;4932493;29;20248;-70
2024/01/17 08:27:46;;;;;;;8.13;3.93;;;;;-1.60;98810.00;;;;4941645;29;20236;-70
2024/01/17 08:30:32;;;;;;;4.37;3.93;;;;;-1.60;98804.00;;;;4933330;29;20229;-70
2024/01/17 08:33:20;;;;;;;5.77;3.37;;;;;-1.50;98796.00;;;;4935469;29;20361;-69
2024/01/17 08:36:08;;;;;;;7.77;2.97;;;;;-1.40;98795.00;;;;4924212;29;20930;-70
2024/01/17 08:38:54;;;;;;;3.50;3.20;;;;;-1.40;98787.00;;;;4931395;29;20264;-71
2024/01/17 08:41:45;;;;;;;3.60;3.30;;;;;-1.40;98780.00;;;;4931449;29;20237;-69
2024/01/17 08:44:31;;;;;;;4.63;3.00;;;;;-1.40;98781.00;;;;4923926;29;20233;-70
2024/01/17 08:47:17;;;;;;;4.80;3.80;;;;;-1.30;98777.00;;;;4926296;29;20248;-69
2024/01/17 08:50:06;;;;;;;4.70;3.30;;;;;-1.10;98763.00;;;;4929651;29;20239;-69
2024/01/17 08:52:53;;;;;;;7.73;3.90;;;;;-1.10;98758.00;;;;4929524;29;20286;-70
2024/01/17 08:55:40;;;;;;;7.77;4.00;;;;;-1.00;98754.00;;;;4930063;29;20244;-70
2024/01/17 08:58:30;;;;;;;6.77;3.77;;;;;-0.90;98748.00;;;;4935671;29;20235;-70
2024/01/17 09:01:16;;;;;;;5.37;3.83;;;;;-1.00;98739.00;;;;4932921;29;20804;-71
2024/01/17 09:04:02;;;;;;;6.20;3.07;;;;;-0.90;98734.00;;;;4928319;29;20236;-70
2024/01/17 09:06:50;;;;;;;5.70;2.70;;;;;-0.80;98744.00;;;;4936224;29;20227;-69
2024/01/17 09:09:37;;;;;;;7.57;3.40;;;;;-0.80;98742.00;;;;4935673;29;20784;-71
2024/01/17 09:12:24;;;;;;;4.63;3.67;;;;;-0.70;98743.00;;;;4923746;29;20233;-69
2024/01/17 09:15:10;;;;;;;5.37;3.57;;;;;-0.70;98741.00;;;;4931087;29;20260;-71
2024/01/17 09:17:57;;;;;;;4.53;3.83;;;;;-0.70;98728.00;;;;4938173;29;20315;-70
2024/01/17 09:20:43;;;;;;;8.00;4.17;;;;;-0.60;98729.00;;;;4922108;29;20257;-71
2024/01/17 09:23:31;;;;;;;5.10;3.40;;;;;-0.60;98709.00;;;;4930384;29;20416;-70
2024/01/17 09:26:17;;;;;;;7.13;3.93;;;;;-0.50;98713.00;;;;4925432;29;20236;-71
2024/01/17 09:29:04;;;;;;;6.40;4.63;;;;;-0.60;98713.00;;;;4935817;29;20342;-70
2024/01/17 09:31:51;;;;;;;8.03;4.43;;;;;-0.40;98709.00;;;;4928324;29;20242;-70
2024/01/17 09:34:37;;;;;;;5.93;4.27;;;;;-0.30;98700.00;;;;4934081;29;20236;-70
2024/01/17 09:37:23;;;;;;;4.13;3.23;;;;;-0.40;98701.00;;;;4935654;29;20373;-67
2024/01/17 09:40:13;;;;;;;3.60;3.30;;;;;-0.30;98697.00;;;;4923905;29;20241;-70
2024/01/17 09:43:00;;;;;;;5.13;3.57;;;;;-0.30;98699.00;;;;4931062;29;20241;-68
2024/01/17 09:46:00;;;;;;;2.53;2.30;;;;;-0.20;98703.00;;;;4929926;29;20240;-68
2024/01/17 09:48:46;;;;;;;6.53;3.70;;;;;-0.20;98699.00;;;;4930732;29;20249;-67
2024/01/17 09:51:33;;;;;;;6.03;3.33;;;;;-0.20;98698.00;;;;4921194;29;20231;-68
2024/01/17 09:54:24;;;;;;;5.13;3.70;;;;;-0.10;98689.00;;;;4929299;29;20357;-67
2024/01/17 09:57:18;;;;;;;6.00;3.20;;;;;-0.10;98685.00;;;;4930405;29;20251;-71
2024/01/17 10:00:09;;;;;;;6.07;3.57;;;;;-0.20;98684.00;;;;4946070;29;20232;-68
2024/01/17 10:02:58;;;;;;;4.57;3.00;;;;;0.00;98674.00;;;;4926537;29;20277;-68
2024/01/17 10:05:45;;;;;;;9.07;3.30;;;;;0.10;98678.00;;;;4936698;29;20240;-69
2024/01/17 10:08:33;;;;;;;6.20;3.57;;;;;0.10;98661.00;;;;4929664;29;20228;-70
2024/01/17 10:11:20;;;;;;;7.00;3.87;;;;;0.20;98666.00;;;;4928177;29;20327;-69
2024/01/17 10:14:08;;;;;;;6.23;3.30;;;;;0.30;98658.00;;;;4937579;29;20364;-67
2024/01/17 10:16:55;;;;;;;3.93;3.50;;;;;0.20;98656.00;;;;4932156;29;20236;-70
2024/01/17 10:19:41;;;;;;;3.67;3.17;;;;;0.40;98656.00;;;;4937469;29;20611;-67
2024/01/17 10:22:28;;;;;;;8.50;3.53;;;;;0.20;98653.00;;;;4931325;29;20239;-67
2024/01/17 10:25:14;;;;;;;7.13;3.50;;;;;0.20;98653.00;;;;4926235;29;20232;-68
2024/01/17 10:28:01;;;;;;;5.57;3.27;;;;;0.30;98650.00;;;;4943604;29;20316;-67
2024/01/17 10:30:48;;;;;;;3.57;2.53;;;;;0.40;98640.00;;;;4941947;29;20252;-70
2024/01/17 10:33:35;;;;;;;4.33;3.27;;;;;0.40;98627.00;;;;4942293;29;20377;-70
2024/01/17 10:36:21;;;;;;;4.00;2.77;;;;;0.40;98628.00;;;;4941810;29;20236;-69
2024/01/17 10:39:11;;;;;;;3.60;3.13;;;;;0.40;98617.00;;;;4944148;29;20232;-68
2024/01/17 10:41:59;;;;;;;5.90;3.97;;;;;0.40;98612.00;;;;4916844;29;20742;-69
2024/01/17 10:44:46;;;;;;;5.37;4.43;;;;;0.40;98622.00;;;;4921321;29;20233;-69
2024/01/17 10:47:34;;;;;;;7.80;4.10;;;;;0.30;98606.00;;;;4928686;29;20236;-69
2024/01/17 10:50:20;;;;;;;4.10;2.93;;;;;0.50;98602.00;;;;4925248;29;20232;-70
2024/01/17 10:53:08;;;;;;;5.03;3.00;;;;;0.50;98598.00;;;;4924746;28;20240;-71
2024/01/17 10:55:56;;;;;;;4.13;3.27;;;;;0.50;98596.00;;;;4925668;29;20362;-71
2024/01/17 10:58:43;;;;;;;3.07;2.60;;;;;0.50;98585.00;;;;4921531;29;20297;-68
2024/01/17 11:01:35;;;;;;;7.40;2.33;;;;;0.50;98581.00;;;;4917495;29;20238;-67
2024/01/17 11:04:27;;;;;;;5.23;3.13;;;;;0.60;98579.00;;;;4926585;29;20280;-71
2024/01/17 11:07:13;;;;;;;9.10;4.27;;;;;0.60;98573.00;;;;4923933;29;20309;-69
2024/01/17 11:10:02;;;;;;;3.83;2.73;;;;;0.60;98565.00;;;;4930817;29;20342;-68
2024/01/17 11:12:50;;;;;;;3.40;2.83;;;;;0.60;98557.00;;;;4928710;29;20241;-69
2024/01/17 11:15:38;;;;;;;7.73;3.57;;;;;0.70;98561.00;;;;4916638;29;20285;-69
2024/01/17 11:18:26;;;;;;;3.67;3.27;;;;;0.80;98554.00;;;;4932070;29;20238;-70
2024/01/17 11:21:14;;;;;;;5.00;3.40;;;;;0.80;98544.00;;;;4927240;29;20614;-69
2024/01/17 11:24:09;;;;;;;5.20;3.47;;;;;0.70;98547.00;;;;4927366;29;20716;-70
2024/01/17 11:27:04;;;;;;;4.50;3.57;;;;;0.80;98543.00;;;;4924681;29;20225;-71
2024/01/17 11:29:58;;;;;;;3.37;3.07;;;;;0.70;98534.00;;;;4924415;29;20863;-71
2024/01/17 11:32:55;;;;;;;4.97;3.60;;;;;0.80;98534.00;;;;4923551;29;20235;-71
2024/01/17 11:35:43;;;;;;;7.97;4.03;;;;;0.80;98520.00;;;;4919212;29;20270;-71
2024/01/17 11:38:33;;;;;;;6.93;3.90;;;;;0.80;98510.00;;;;4920325;29;20264;-70
2024/01/17 11:41:19;;;;;;;3.63;3.17;;;;;0.90;98507.00;;;;4920120;29;20765;-71
2024/01/17 11:44:08;;;;;;;5.30;3.17;;;;;1.00;98512.00;;;;4918608;29;20284;-71
2024/01/17 11:46:54;;;;;;;4.13;3.30;;;;;1.10;98508.00;;;;4929086;29;20243;-71
2024/01/17 11:49:42;;;;;;;11.60;4.53;;;;;1.10;98501.00;;;;4924617;29;20240;-68
2024/01/17 11:52:34;;;;;;;5.77;2.97;;;;;1.00;98503.00;;;;4927458;28;20242;-68
2024/01/17 11:55:31;;;;;;;7.07;3.37;;;;;1.10;98491.00;;;;4920421;29;20282;-67
2024/01/17 11:58:18;;;;;;;4.63;3.60;;;;;1.10;98485.00;;;;4920184;29;20236;-68
2024/01/17 12:01:05;;;;;;;6.23;3.93;;;;;1.20;98481.00;;;;4924999;29;20234;-67
2024/01/17 12:03:51;;;;;;;7.80;4.43;;;;;1.20;98478.00;;;;4925964;29;20649;-67
2024/01/17 12:06:38;;;;;;;8.20;4.67;;;;;1.10;98465.00;;;;4930671;29;20846;-68
2024/01/17 12:09:27;;;;;;;3.80;3.43;;;;;1.20;98459.00;;;;4933485;29;20240;-68
2024/01/17 12:12:22;;;;;;;5.63;3.90;;;;;1.20;98457.00;;;;4934757;28;20300;-66
2024/01/17 12:15:10;;;;;;;6.43;3.57;;;;;1.20;98454.00;;;;4945183;29;20236;-69
2024/01/17 12:17:57;;;;;;;5.70;3.57;;;;;1.20;98448.00;;;;4937521;29;20778;-69
2024/01/17 12:20:44;;;;;;;7.07;4.10;;;;;1.20;98438.00;;;;4931114;28;20243;-69
2024/01/17 12:23:32;;;;;;;4.83;3.47;;;;;1.20;98426.00;;;;4937329;29;20234;-68
2024/01/17 12:26:19;;;;;;;6.23;3.20;;;;;1.20;98432.00;;;;4935959;29;20233;-68
2024/01/17 12:29:07;;;;;;;7.97;4.03;;;;;1.10;98420.00;;;;4934945;29;20242;-69
2024/01/17 12:31:54;;;;;;;6.70;3.60;;;;;1.10;98416.00;;;;4939752;29;20243;-66
2024/01/17 12:34:41;;;;;;;4.57;4.10;;;;;1.20;98410.00;;;;4933852;29;20595;-68
2024/01/17 12:37:29;;;;;;;8.30;4.17;;;;;1.20;98410.00;;;;4925411;29;20244;-67
2024/01/17 12:40:15;;;;;;;6.70;4.40;;;;;1.30;98393.00;;;;4939743;29;20250;-69
2024/01/17 12:43:02;;;;;;;7.47;4.73;;;;;1.40;98391.00;;;;4927214;29;20310;-68
2024/01/17 12:45:50;;;;;;;5.17;4.17;;;;;1.30;98382.00;;;;4924219;29;20777;-67
2024/01/17 12:48:36;;;;;;;6.77;4.33;;;;;1.30;98377.00;;;;4928428;29;20654;-69
2024/01/17 12:51:24;;;;;;;6.67;4.53;;;;;1.30;98373.00;;;;4931856;29;20391;-69
2024/01/17 12:54:11;;;;;;;4.23;3.83;;;;;1.30;98359.00;;;;4934427;29;20305;-69
2024/01/17 12:56:58;;;;;;;6.30;3.63;;;;;1.30;98353.00;;;;4927491;29;20364;-70
2024/01/17 12:59:44;;;;;;;11.73;4.17;;;;;1.30;98358.00;;;;4929263;29;20234;-70
2024/01/17 13:02:32;;;;;;;8.30;4.23;;;;;1.30;98350.00;;;;4931635;29;20314;-71
2024/01/17 13:05:23;;;;;;;7.87;3.80;;;;;1.30;98348.00;;;;4927709;29;20366;-70
2024/01/17 13:08:11;;;;;;;7.27;4.33;;;;;1.30;98350.00;;;;4936653;29;20239;-71
2024/01/17 13:10:58;;;;;;;5.80;3.93;;;;;1.20;98336.00;;;;4926488;29;20784;-69
2024/01/17 13:13:46;;;;;;;4.63;3.83;;;;;1.20;98335.00;;;;4925358;29;20238;-69
2024/01/17 13:16:33;;;;;;;5.87;4.40;;;;;1.20;98335.00;;;;4919685;29;20316;-69
2024/01/17 13:19:20;;;;;;;5.30;3.77;;;;;1.10;98334.00;;;;4931822;29;20885;-70
2024/01/17 13:22:07;;;;;;;7.00;4.20;;;;;1.10;98330.00;;;;4919827;29;20258;-68
2024/01/17 13:24:54;;;;;;;8.10;4.33;;;;;1.20;98335.00;;;;4943197;28;20263;-69
2024/01/17 13:27:43;;;;;;;6.63;3.70;;;;;1.20;98328.00;;;;4946691;29;20302;-72
2024/01/17 13:30:34;;;;;;;5.50;4.13;;;;;1.20;98320.00;;;;4951122;29;20214;-73
2024/01/17 13:33:20;;;;;;;5.57;4.00;;;;;1.20;98322.00;;;;4960732;28;20230;-72
2024/01/17 13:36:08;;;;;;;6.80;4.50;;;;;1.20;98314.00;;;;4955205;29;20220;-70
2024/01/17 13:38:55;;;;;;;7.70;4.93;;;;;1.30;98313.00;;;;4928694;29;20242;-69
2024/01/17 13:41:41;;;;;;;7.00;3.73;;;;;1.20;98317.00;;;;4924037;28;20236;-70
2024/01/17 13:44:27;;;;;;;7.70;5.23;;;;;1.10;98328.00;;;;4932429;29;20310;-69
2024/01/17 13:47:13;;;;;;;4.10;2.87;;;;;1.10;98310.00;;;;4945983;29;20280;-70
2024/01/17 13:50:08;;;;;;;6.07;4.13;;;;;1.20;98313.00;;;;4933419;29;20249;-71
2024/01/17 13:52:59;;;;;;;10.40;5.63;;;;;1.20;98303.00;;;;4944824;29;20235;-72
2024/01/17 13:55:45;;;;;;;7.27;4.87;;;;;1.30;98312.00;;;;4935835;29;20236;-70
2024/01/17 13:58:33;;;;;;;9.23;5.43;;;;;1.30;98305.00;;;;4934720;29;20229;-70
2024/01/17 14:01:20;;;;;;;5.73;4.00;;;;;1.20;98301.00;;;;4932552;29;20238;-69